Accueil
METAR-TAF:

METAR-TAF

Aéroports :

Asahikawa Air Base, Japon

latitude: 43-48N, longitude: 142-22E, altitude: 115 m

Observation

Le bulletin a été fait il y a 1 heure et 35 minutes, à 23:05 UTC
Vent 12 kt de ouest/sud-ouest
Température -7°C
Humidité 79%
Pression 998 hPa
Visibilité: 0800 m
averses de neige

METAR: RJCA 162305Z 24012KT 0800 SHSN VV008 M07/M10 Q0998 RMK A2948 W/E

Heure: 09:40 (00:40 UTC)


TAF: absent

Observations et prévisions météorologiques de plus de 4000 aéroports (messages METAR et TAF).

Les stations disponibles sont représentées par des disques jaunes et rouges sur la carte.

Passer la souris dessus pour voir le nom de la station.

Cliquer dessus pour voir les observations et prévisions météorologiques.

Pour changer de carte: cliquez sur les boutons verts avec une croix noire pour zoomer, sur le bouton vert avec un tiret pour effectuer un zoom arrière, ou sur les flèches vertes pour les cartes adjacentes.


METAR-TAF: